^^
Grace C. Lehan Memorial Weather Station Historical Data
Daily Summary for June 5, 2022 Units:  Both    English   Metric
Daily Weekly Monthly Yearly
  High: Low: Average:
Temperature: 41.8 °F /  5.4 °C 26.4 °F /  -3.1 °C 35 °F /  1.7 °C
Dew Point: 40.7 °F /  4.8 °C 20.8 °F /  -6.2 °C 32.7 °F /  0.4 °C
Humidity: 96% 75.2% 91%
Wind Speed: 2.3mph /  3.7km/h - 0.1mph /  0.2km/h
Wind Gust: 5mph /  8km/h - -
Wind- - South
Pressure: 30.25 in /  1024.3 hPa 29.63 in /  1003.3 hPa -
Precipitation: 0.02 in /  0.51 mm    
 
 
Tabular Data for June 5, 2022
Time Temperature Dew Point Pressure Wind Wind Speed Wind Gust Humidity Rainfall Rate (Hourly) solar
00:04 27.8 °F /  -2.3 °C 20.9 °F /  -6.2 °C 30.25in /  1024.3hPa Calm   3mph /  4.8km/h 75.2% 0.00in /  0mm 0 W/m2
00:09 27.7 °F /  -2.4 °C 21.1 °F /  -6.1 °C 30.24in /  1023.9hPa Calm     76% 0.00in /  0mm 0 W/m2
00:14 27.7 °F /  -2.4 °C 21.1 °F /  -6.1 °C 30.24in /  1023.9hPa Calm     76% 0.00in /  0mm 0 W/m2
00:19 27.7 °F /  -2.4 °C 21.1 °F /  -6.1 °C 30.24in /  1023.9hPa Calm     76% 0.00in /  0mm 0 W/m2
00:24 27.6 °F /  -2.4 °C 21.1 °F /  -6.1 °C 30.24in /  1023.9hPa Calm     76% 0.00in /  0mm 0 W/m2
00:29 27.6 °F /  -2.4 °C 21 °F /  -6.1 °C 30.24in /  1023.9hPa Calm     76% 0.00in /  0mm 0 W/m2
00:34 27.7 °F /  -2.4 °C 21.1 °F /  -6.1 °C 30.24in /  1023.9hPa Calm     76% 0.00in /  0mm 0 W/m2
00:39 27.7 °F /  -2.4 °C 21.1 °F /  -6.1 °C 30.23in /  1023.6hPa Calm     76% 0.00in /  0mm 0 W/m2
00:44 27.7 °F /  -2.4 °C 21.1 °F /  -6.1 °C 30.23in /  1023.6hPa Calm     76% 0.00in /  0mm 0 W/m2
00:49 27.6 °F /  -2.4 °C 21.1 °F /  -6.1 °C 30.23in /  1023.6hPa Calm     76% 0.00in /  0mm 0 W/m2
00:54 27.6 °F /  -2.4 °C 21 °F /  -6.1 °C 30.22in /  1023.2hPa Calm     76% 0.00in /  0mm 0 W/m2
00:59 27.6 °F /  -2.4 °C 21 °F /  -6.1 °C 30.22in /  1023.2hPa Calm   1mph /  1.6km/h 76% 0.00in /  0mm 0 W/m2
01:04 27.6 °F /  -2.4 °C 21 °F /  -6.1 °C 30.22in /  1023.2hPa Calm   1mph /  1.6km/h 76% 0.00in /  0mm 0 W/m2
01:09 27.6 °F /  -2.4 °C 21 °F /  -6.1 °C 30.23in /  1023.6hPa Calm     76% 0.00in /  0mm 0 W/m2
01:14 27.6 °F /  -2.4 °C 21 °F /  -6.1 °C 30.23in /  1023.6hPa Calm     76% 0.00in /  0mm 0 W/m2
01:19 27.6 °F /  -2.4 °C 21.3 °F /  -5.9 °C 30.22in /  1023.2hPa Calm     76.9% 0.00in /  0mm 0 W/m2
01:24 27.5 °F /  -2.5 °C 21.3 °F /  -5.9 °C 30.22in /  1023.2hPa Calm     77% 0.00in /  0mm 0 W/m2
01:29 27.5 °F /  -2.5 °C 21.3 °F /  -5.9 °C 30.21in /  1022.9hPa Calm     77% 0.00in /  0mm 0 W/m2
01:34 27.5 °F /  -2.5 °C 21.2 °F /  -6 °C 30.21in /  1022.9hPa Calm     77% 0.00in /  0mm 0 W/m2
01:39 27.4 °F /  -2.6 °C 21.2 °F /  -6 °C 30.20in /  1022.6hPa Calm     77% 0.00in /  0mm 0 W/m2
01:44 27.4 °F /  -2.6 °C 21.1 °F /  -6.1 °C 30.21in /  1022.9hPa Calm     77% 0.00in /  0mm 0 W/m2
01:49 27.3 °F /  -2.6 °C 21.1 °F /  -6.1 °C 30.20in /  1022.6hPa Calm     77.3% 0.00in /  0mm 0 W/m2
01:54 27.2 °F /  -2.7 °C 21.2 °F /  -6 °C 30.20in /  1022.6hPa Calm     78% 0.00in /  0mm 0 W/m2
01:59 27 °F /  -2.8 °C 21.1 °F /  -6.1 °C 30.20in /  1022.6hPa Calm     78% 0.00in /  0mm 0 W/m2
02:04 26.9 °F /  -2.8 °C 21 °F /  -6.1 °C 30.20in /  1022.6hPa Calm     78% 0.00in /  0mm 0 W/m2
02:09 26.7 °F /  -2.9 °C 20.8 °F /  -6.2 °C 30.20in /  1022.6hPa Calm     78% 0.00in /  0mm 0 W/m2
02:14 26.6 °F /  -3 °C 20.9 °F /  -6.2 °C 30.20in /  1022.6hPa Calm     78.5% 0.00in /  0mm 0 W/m2
02:19 26.5 °F /  -3.1 °C 20.9 °F /  -6.2 °C 30.20in /  1022.6hPa Calm     79% 0.00in /  0mm 0 W/m2
02:24 26.5 °F /  -3.1 °C 20.8 °F /  -6.2 °C 30.19in /  1022.2hPa Calm     79% 0.00in /  0mm 0 W/m2
02:29 26.4 °F /  -3.1 °C 21 °F /  -6.1 °C 30.19in /  1022.2hPa Calm     79.6% 0.00in /  0mm 0 W/m2
02:34 26.4 °F /  -3.1 °C 21.1 °F /  -6.1 °C 30.19in /  1022.2hPa Calm     80.1% 0.00in /  0mm 0 W/m2
02:39 26.5 °F /  -3.1 °C 21.5 °F /  -5.8 °C 30.19in /  1022.2hPa Calm     81% 0.00in /  0mm 0 W/m2
02:44 26.5 °F /  -3.1 °C 21.5 °F /  -5.8 °C 30.19in /  1022.2hPa Calm     81% 0.00in /  0mm 0 W/m2
02:49 26.6 °F /  -3 °C 21.5 °F /  -5.8 °C 30.19in /  1022.2hPa Calm     81% 0.00in /  0mm 0 W/m2
02:54 26.8 °F /  -2.9 °C 22 °F /  -5.6 °C 30.18in /  1021.9hPa Calm     81.9% 0.00in /  0mm 0 W/m2
02:59 27 °F /  -2.8 °C 22.2 °F /  -5.4 °C 30.18in /  1021.9hPa Calm     82% 0.00in /  0mm 0 W/m2
03:04 27.2 °F /  -2.7 °C 22.4 °F /  -5.3 °C 30.18in /  1021.9hPa Calm   1mph /  1.6km/h 82% 0.00in /  0mm 0 W/m2
03:09 27.5 °F /  -2.5 °C 22.7 °F /  -5.2 °C 30.17in /  1021.6hPa SSW 0.3mph /  0.5km/h 2mph /  3.2km/h 82% 0.00in /  0mm 0 W/m2
03:14 27.8 °F /  -2.3 °C 23 °F /  -5 °C 30.17in /  1021.6hPa Calm   2mph /  3.2km/h 82% 0.00in /  0mm 0 W/m2
03:19 28 °F /  -2.2 °C 23.2 °F /  -4.9 °C 30.17in /  1021.6hPa Calm   2mph /  3.2km/h 82% 0.00in /  0mm 0 W/m2
03:24 28.1 °F /  -2.2 °C 23.3 °F /  -4.8 °C 30.16in /  1021.2hPa Calm   2mph /  3.2km/h 81.9% 0.00in /  0mm 0 W/m2
03:29 28.1 °F /  -2.2 °C 23.1 °F /  -4.9 °C 30.16in /  1021.2hPa Calm   2mph /  3.2km/h 81.2% 0.00in /  0mm 0 W/m2
03:34 28 °F /  -2.2 °C 22.9 °F /  -5.1 °C 30.16in /  1021.2hPa Calm   2mph /  3.2km/h 81% 0.00in /  0mm 0 W/m2
03:39 27.9 °F /  -2.3 °C 22.8 °F /  -5.1 °C 30.16in /  1021.2hPa Calm     81% 0.00in /  0mm 0 W/m2
03:44 27.7 °F /  -2.4 °C 22.7 °F /  -5.2 °C 30.16in /  1021.2hPa SSW 0.3mph /  0.5km/h 2mph /  3.2km/h 81% 0.00in /  0mm 0 W/m2
03:49 27.6 °F /  -2.4 °C 22.8 °F /  -5.1 °C 30.16in /  1021.2hPa SSW 0.1mph /  0.2km/h 2mph /  3.2km/h 81.8% 0.00in /  0mm 0 W/m2
03:54 27.5 °F /  -2.5 °C 22.7 °F /  -5.2 °C 30.15in /  1020.9hPa Calm   2mph /  3.2km/h 82% 0.00in /  0mm 0 W/m2
03:58 27.4 °F /  -2.6 °C 22.6 °F /  -5.2 °C 30.15in /  1020.9hPa Calm   2mph /  3.2km/h 82% 0.00in /  0mm 0 W/m2
04:04 27.3 °F /  -2.6 °C 22.5 °F /  -5.3 °C 30.15in /  1020.9hPa Calm     82% 0.00in /  0mm 0 W/m2
04:09 27.2 °F /  -2.7 °C 22.7 °F /  -5.2 °C 30.15in /  1020.9hPa Calm     82.8% 0.00in /  0mm 0 W/m2
04:14 27.2 °F /  -2.7 °C 22.7 °F /  -5.2 °C 30.15in /  1020.9hPa Calm     83% 0.00in /  0mm 0 W/m2
04:19 27.1 °F /  -2.7 °C 22.6 °F /  -5.2 °C 30.15in /  1020.9hPa Calm     83% 0.00in /  0mm 0 W/m2
04:24 27 °F /  -2.8 °C 22.7 °F /  -5.2 °C 30.15in /  1020.9hPa Calm     83.4% 0.00in /  0mm 0 W/m2
04:29 27 °F /  -2.8 °C 22.8 °F /  -5.1 °C 30.14in /  1020.5hPa Calm     84% 0.00in /  0mm 0 W/m2
04:34 27.1 °F /  -2.7 °C 23 °F /  -5 °C 30.14in /  1020.5hPa Calm     84.3% 0.00in /  0mm 0 W/m2
04:39 27.1 °F /  -2.7 °C 23.2 °F /  -4.9 °C 30.14in /  1020.5hPa Calm     85% 0.00in /  0mm 0 W/m2
04:44 27.1 °F /  -2.7 °C 23.2 °F /  -4.9 °C 30.13in /  1020.2hPa Calm     85% 0.00in /  0mm 0 W/m2
04:49 27.1 °F /  -2.7 °C 23.2 °F /  -4.9 °C 30.13in /  1020.2hPa Calm     85% 0.00in /  0mm 0 W/m2
04:54 27.1 °F /  -2.7 °C 23.2 °F /  -4.9 °C 30.13in /  1020.2hPa Calm     85% 0.00in /  0mm 0 W/m2
04:59 27 °F /  -2.8 °C 23.1 °F /  -4.9 °C 30.12in /  1019.9hPa Calm     85% 0.00in /  0mm 0 W/m2
05:04 27 °F /  -2.8 °C 23.1 °F /  -4.9 °C 30.12in /  1019.9hPa Calm     85% 0.00in /  0mm 0 W/m2
05:09 27 °F /  -2.8 °C 23.2 °F /  -4.9 °C 30.11in /  1019.5hPa Calm     85.5% 0.00in /  0mm 0 W/m2
05:14 27 °F /  -2.8 °C 23.4 °F /  -4.8 °C 30.11in /  1019.5hPa Calm     86% 0.00in /  0mm 0 W/m2
05:19 27 °F /  -2.8 °C 23.4 °F /  -4.8 °C 30.10in /  1019.2hPa Calm     86% 0.00in /  0mm 0 W/m2
05:24 27.1 °F /  -2.7 °C 23.6 °F /  -4.7 °C 30.10in /  1019.2hPa Calm     86.5% 0.00in /  0mm 0 W/m2
05:29 27.3 °F /  -2.6 °C 24 °F /  -4.4 °C 30.09in /  1018.8hPa Calm     87% 0.00in /  0mm 0 W/m2
05:34 27.6 °F /  -2.4 °C 24.5 °F /  -4.2 °C 30.09in /  1018.8hPa Calm     87.9% 0.00in /  0mm 0 W/m2
05:39 27.9 °F /  -2.3 °C 24.8 °F /  -4 °C 30.09in /  1018.8hPa Calm     88% 0.00in /  0mm 0 W/m2
05:44 28 °F /  -2.2 °C 24.7 °F /  -4.1 °C 30.09in /  1018.8hPa Calm     87.2% 0.00in /  0mm 0 W/m2
05:49 28.1 °F /  -2.2 °C 24.7 °F /  -4.1 °C 30.09in /  1018.8hPa Calm     87% 0.00in /  0mm 0 W/m2
05:54 28.2 °F /  -2.1 °C 24.8 °F /  -4 °C 30.09in /  1018.8hPa Calm     87% 0.00in /  0mm 0 W/m2
05:59 28.4 °F /  -2 °C 25.2 °F /  -3.8 °C 30.09in /  1018.8hPa Calm     87.9% 0.00in /  0mm 0 W/m2
06:04 28.6 °F /  -1.9 °C 25.5 °F /  -3.6 °C 30.08in /  1018.5hPa SSW 0.1mph /  0.2km/h 2mph /  3.2km/h 88% 0.00in /  0mm 0 W/m2
06:09 28.8 °F /  -1.8 °C 25.7 °F /  -3.5 °C 30.08in /  1018.5hPa Calm   2mph /  3.2km/h 88% 0.00in /  0mm 0 W/m2
06:14 29 °F /  -1.7 °C 25.9 °F /  -3.4 °C 30.08in /  1018.5hPa Calm   2mph /  3.2km/h 88% 0.00in /  0mm 0 W/m2
06:19 29.2 °F /  -1.6 °C 26.1 °F /  -3.3 °C 30.07in /  1018.2hPa Calm   2mph /  3.2km/h 88% 0.00in /  0mm 0 W/m2
06:24 29.4 °F /  -1.4 °C 26.3 °F /  -3.2 °C 30.07in /  1018.2hPa Calm   2mph /  3.2km/h 88% 0.00in /  0mm 0 W/m2
06:29 29.6 °F /  -1.3 °C 26.5 °F /  -3.1 °C 30.07in /  1018.2hPa Calm   2mph /  3.2km/h 88% 0.00in /  0mm 0 W/m2
06:34 29.8 °F /  -1.2 °C 26.6 °F /  -3 °C 30.06in /  1017.8hPa Calm   2mph /  3.2km/h 88% 0.00in /  0mm 0 W/m2
06:39 29.9 °F /  -1.2 °C 27 °F /  -2.8 °C 30.06in /  1017.8hPa Calm     88.6% 0.00in /  0mm 0 W/m2
06:44 30.2 °F /  -1 °C 27.3 °F /  -2.6 °C 30.05in /  1017.5hPa Calm     89% 0.00in /  0mm 0 W/m2
06:49 30.4 °F /  -0.9 °C 27.5 °F /  -2.5 °C 30.05in /  1017.5hPa Calm     89% 0.00in /  0mm 0 W/m2
06:54 30.5 °F /  -0.8 °C 27.5 °F /  -2.5 °C 30.05in /  1017.5hPa Calm     88.3% 0.00in /  0mm 0 W/m2
06:59 30.6 °F /  -0.8 °C 27.7 °F /  -2.4 °C 30.04in /  1017.2hPa Calm     88.8% 0.00in /  0mm 0 W/m2
07:04 30.8 °F /  -0.7 °C 27.9 °F /  -2.3 °C 30.04in /  1017.2hPa Calm     89% 0.00in /  0mm 0 W/m2
07:09 31 °F /  -0.6 °C 28.1 °F /  -2.2 °C 30.03in /  1016.8hPa Calm     89% 0.00in /  0mm 0 W/m2
07:14 31.1 °F /  -0.5 °C 28.2 °F /  -2.1 °C 30.03in /  1016.8hPa Calm     89% 0.00in /  0mm 0 W/m2
07:19 31.1 °F /  -0.5 °C 28.3 °F /  -2.1 °C 30.03in /  1016.8hPa Calm     89% 0.00in /  0mm 0 W/m2
07:24 31.2 °F /  -0.4 °C 28.6 °F /  -1.9 °C 30.03in /  1016.8hPa Calm     90% 0.00in /  0mm 0 W/m2
07:29 31.2 °F /  -0.4 °C 28.6 °F /  -1.9 °C 30.02in /  1016.5hPa Calm     90% 0.00in /  0mm 0 W/m2
07:34 31.2 °F /  -0.4 °C 28.6 °F /  -1.9 °C 30.02in /  1016.5hPa Calm     90% 0.00in /  0mm 0 W/m2
07:39 31.3 °F /  -0.4 °C 28.7 °F /  -1.8 °C 30.02in /  1016.5hPa Calm     90% 0.00in /  0mm 0 W/m2
07:44 31.4 °F /  -0.3 °C 28.8 °F /  -1.8 °C 30.02in /  1016.5hPa Calm     90% 0.00in /  0mm 0 W/m2
07:49 31.5 °F /  -0.3 °C 29 °F /  -1.7 °C 30.02in /  1016.5hPa Calm     90.2% 0.00in /  0mm 0 W/m2
07:54 31.6 °F /  -0.2 °C 29.3 °F /  -1.5 °C 30.02in /  1016.5hPa Calm     91% 0.00in /  0mm 0 W/m2
07:59 31.7 °F /  -0.2 °C 29.4 °F /  -1.4 °C 30.02in /  1016.5hPa Calm     91% 0.00in /  0mm 5 W/m2
08:09 31.9 °F /  -0.1 °C 29.6 °F /  -1.3 °C 30.01in /  1016.1hPa SSW 0.6mph /  1km/h 3mph /  4.8km/h 91% 0.02in /  0.51mm 7 W/m2
08:14 32.1 °F /  0.1 °C 30 °F /  -1.1 °C 30.01in /  1016.1hPa SSW 0.1mph /  0.2km/h 3mph /  4.8km/h 91.8% 0.02in /  0.51mm 23 W/m2
08:19 32.3 °F /  0.2 °C 30.3 °F /  -0.9 °C 30.01in /  1016.1hPa Calm   3mph /  4.8km/h 92% 0.02in /  0.51mm 23 W/m2
08:24 32.5 °F /  0.3 °C 30.4 °F /  -0.9 °C 30.00in /  1015.8hPa Calm   3mph /  4.8km/h 92% 0.02in /  0.51mm 16 W/m2
08:29 32.6 °F /  0.3 °C 30.5 °F /  -0.8 °C 30.00in /  1015.8hPa Calm   3mph /  4.8km/h 92% 0.02in /  0.51mm 11 W/m2
08:34 32.7 °F /  0.4 °C 30.7 °F /  -0.7 °C 30.00in /  1015.8hPa Calm   3mph /  4.8km/h 92% 0.02in /  0.51mm 14 W/m2
08:39 32.9 °F /  0.5 °C 30.8 °F /  -0.7 °C 30.00in /  1015.8hPa SSW 0.1mph /  0.2km/h 2mph /  3.2km/h 92% 0.02in /  0.51mm 14 W/m2
08:44 33 °F /  0.6 °C 31.1 °F /  -0.5 °C 30.01in /  1016.1hPa Calm   2mph /  3.2km/h 92.8% 0.02in /  0.51mm 18 W/m2
08:49 33.1 °F /  0.6 °C 31.3 °F /  -0.4 °C 30.01in /  1016.1hPa Calm   2mph /  3.2km/h 93% 0.02in /  0.51mm 28 W/m2
08:54 33.3 °F /  0.7 °C 31.5 °F /  -0.3 °C 29.99in /  1015.5hPa Calm   2mph /  3.2km/h 93% 0.02in /  0.51mm 28 W/m2
08:59 33.3 °F /  0.7 °C 31.5 °F /  -0.3 °C 29.99in /  1015.5hPa Calm   2mph /  3.2km/h 93% 0.02in /  0.51mm 30 W/m2
09:04 33.4 °F /  0.8 °C 31.6 °F /  -0.2 °C 29.99in /  1015.5hPa SSW 0.1mph /  0.2km/h 3mph /  4.8km/h 93% 0.02in /  0.51mm 23 W/m2
09:09 33.5 °F /  0.8 °C 31.7 °F /  -0.2 °C 30.00in /  1015.8hPa SSW 0.5mph /  0.8km/h 3mph /  4.8km/h 93% 0.00in /  0mm 19 W/m2
09:14 33.6 °F /  0.9 °C 31.8 °F /  -0.1 °C 30.00in /  1015.8hPa Calm   3mph /  4.8km/h 93% 0.00in /  0mm 28 W/m2
09:19 33.7 °F /  0.9 °C 31.9 °F /  -0.1 °C 29.99in /  1015.5hPa Calm   3mph /  4.8km/h 93% 0.00in /  0mm 33 W/m2
09:24 33.7 °F /  0.9 °C 31.9 °F /  -0.1 °C 29.99in /  1015.5hPa Calm   3mph /  4.8km/h 93% 0.00in /  0mm 32 W/m2
09:29 33.7 °F /  0.9 °C 31.9 °F /  -0.1 °C 29.99in /  1015.5hPa SSW 0.2mph /  0.3km/h 3mph /  4.8km/h 93% 0.00in /  0mm 49 W/m2
09:34 33.8 °F /  1 °C 32 °F /  0 °C 29.98in /  1015.1hPa SSW 1.6mph /  2.6km/h 3mph /  4.8km/h 93% 0.00in /  0mm 88 W/m2
09:39 33.8 °F /  1 °C 32 °F /  0 °C 29.97in /  1014.8hPa South 2mph /  3.2km/h 5mph /  8km/h 93% 0.00in /  0mm 114 W/m2
09:44 33.9 °F /  1.1 °C 32.1 °F /  0.1 °C 29.96in /  1014.4hPa SSE 2.3mph /  3.7km/h 5mph /  8km/h 93% 0.00in /  0mm 158 W/m2
09:49 34.1 °F /  1.2 °C 32.5 °F /  0.3 °C 29.95in /  1014.1hPa SE 1.4mph /  2.3km/h 5mph /  8km/h 94% 0.00in /  0mm 144 W/m2
09:54 34.2 °F /  1.2 °C 32.7 °F /  0.4 °C 29.95in /  1014.1hPa Calm   5mph /  8km/h 94% 0.00in /  0mm 141 W/m2
09:59 34.4 °F /  1.3 °C 32.9 °F /  0.5 °C 29.96in /  1014.4hPa Calm   5mph /  8km/h 94% 0.00in /  0mm 113 W/m2
10:04 34.7 °F /  1.5 °C 33.2 °F /  0.7 °C 29.96in /  1014.4hPa Calm   5mph /  8km/h 94% 0.00in /  0mm 81 W/m2
10:09 34.9 °F /  1.6 °C 33.4 °F /  0.8 °C 29.95in /  1014.1hPa SE 0.2mph /  0.3km/h 2mph /  3.2km/h 94% 0.00in /  0mm 90 W/m2
10:14 35.1 °F /  1.7 °C 33.5 °F /  0.8 °C 29.95in /  1014.1hPa Calm   2mph /  3.2km/h 94% 0.00in /  0mm 74 W/m2
10:19 35.2 °F /  1.8 °C 33.7 °F /  0.9 °C 29.94in /  1013.8hPa Calm   2mph /  3.2km/h 94% 0.00in /  0mm 123 W/m2
10:24 35.3 °F /  1.8 °C 33.8 °F /  1 °C 29.94in /  1013.8hPa Calm   2mph /  3.2km/h 94.1% 0.00in /  0mm 155 W/m2
10:29 35.5 °F /  1.9 °C 34.2 °F /  1.2 °C 29.94in /  1013.8hPa Calm   2mph /  3.2km/h 94.8% 0.00in /  0mm 104 W/m2
10:34 35.7 °F /  2.1 °C 34.4 °F /  1.3 °C 29.97in /  1014.8hPa South 0.7mph /  1.1km/h 4mph /  6.4km/h 95% 0.00in /  0mm 42 W/m2
10:39 35.8 °F /  2.1 °C 34.4 °F /  1.3 °C 29.97in /  1014.8hPa South 1.9mph /  3.1km/h 4mph /  6.4km/h 94.4% 0.00in /  0mm 53 W/m2
10:44 35.8 °F /  2.1 °C 34.3 °F /  1.3 °C 29.92in /  1013.1hPa Calm   4mph /  6.4km/h 94% 0.00in /  0mm 123 W/m2
10:49 35.9 °F /  2.2 °C 34.5 °F /  1.4 °C 29.93in /  1013.4hPa SSE 0.1mph /  0.2km/h 4mph /  6.4km/h 94.5% 0.00in /  0mm 139 W/m2
10:54 36.1 °F /  2.3 °C 34.9 °F /  1.6 °C 29.93in /  1013.4hPa Calm   4mph /  6.4km/h 95% 0.00in /  0mm 88 W/m2
10:59 36.4 °F /  2.4 °C 35.1 °F /  1.7 °C 29.93in /  1013.4hPa Calm   4mph /  6.4km/h 95% 0.00in /  0mm 105 W/m2
11:04 36.7 °F /  2.6 °C 35.6 °F /  2 °C 29.93in /  1013.4hPa Calm   4mph /  6.4km/h 95.9% 0.00in /  0mm 107 W/m2
11:09 36.8 °F /  2.7 °C 35.5 °F /  1.9 °C 29.92in /  1013.1hPa Calm     95% 0.00in /  0mm 97 W/m2
11:14 37 °F /  2.8 °C 35.7 °F /  2.1 °C 29.92in /  1013.1hPa Calm     95% 0.00in /  0mm 146 W/m2
11:19 37.1 °F /  2.8 °C 35.8 °F /  2.1 °C 29.91in /  1012.8hPa Calm   1mph /  1.6km/h 95% 0.00in /  0mm 125 W/m2
11:24 37.4 °F /  3 °C 36.1 °F /  2.3 °C 29.91in /  1012.8hPa Calm   1mph /  1.6km/h 95% 0.00in /  0mm 142 W/m2
11:29 37.6 °F /  3.1 °C 36.3 °F /  2.4 °C 29.90in /  1012.4hPa SSE 0.5mph /  0.8km/h 3mph /  4.8km/h 95% 0.00in /  0mm 142 W/m2
11:34 37.8 °F /  3.2 °C 36.5 °F /  2.5 °C 29.90in /  1012.4hPa SSE 0.1mph /  0.2km/h 3mph /  4.8km/h 95% 0.00in /  0mm 58 W/m2
11:39 38 °F /  3.3 °C 36.7 °F /  2.6 °C 29.90in /  1012.4hPa Calm   2mph /  3.2km/h 95% 0.00in /  0mm 47 W/m2
11:44 38 °F /  3.3 °C 36.7 °F /  2.6 °C 29.89in /  1012.1hPa SSE 0.4mph /  0.6km/h 3mph /  4.8km/h 95% 0.00in /  0mm 56 W/m2
11:49 38 °F /  3.3 °C 36.7 °F /  2.6 °C 29.89in /  1012.1hPa Calm   3mph /  4.8km/h 95% 0.00in /  0mm 40 W/m2
11:54 38.1 °F /  3.4 °C 36.8 °F /  2.7 °C 29.88in /  1011.7hPa SSE 0.1mph /  0.2km/h 3mph /  4.8km/h 95% 0.00in /  0mm 63 W/m2
11:59 38.1 °F /  3.4 °C 36.8 °F /  2.7 °C 29.87in /  1011.4hPa Calm   3mph /  4.8km/h 95% 0.00in /  0mm 72 W/m2
12:00 38.1 °F /  3.4 °C 36.8 °F /  2.7 °C 29.87in /  1011.4hPa Calm   3mph /  4.8km/h 95% 0.00in /  0mm 51 W/m2
12:09 38.4 °F /  3.6 °C 37.1 °F /  2.8 °C 29.86in /  1011.1hPa SSE 0.4mph /  0.6km/h 4mph /  6.4km/h 95% 0.00in /  0mm 142 W/m2
12:14 38.6 °F /  3.7 °C 37.3 °F /  2.9 °C 29.86in /  1011.1hPa Calm   4mph /  6.4km/h 95% 0.00in /  0mm 111 W/m2
12:19 38.9 °F /  3.8 °C 37.6 °F /  3.1 °C 29.86in /  1011.1hPa SSE 0.3mph /  0.5km/h 4mph /  6.4km/h 95% 0.00in /  0mm 148 W/m2
12:24 39.2 °F /  4 °C 37.9 °F /  3.3 °C 29.86in /  1011.1hPa SSE 0.1mph /  0.2km/h 4mph /  6.4km/h 95% 0.00in /  0mm 93 W/m2
12:29 39.3 °F /  4.1 °C 38 °F /  3.3 °C 29.86in /  1011.1hPa Calm   4mph /  6.4km/h 95% 0.00in /  0mm 72 W/m2
12:34 39.4 °F /  4.1 °C 38.1 °F /  3.4 °C 29.85in /  1010.7hPa SSE 0.3mph /  0.5km/h 4mph /  6.4km/h 95% 0.00in /  0mm 90 W/m2
12:39 39.4 °F /  4.1 °C 38.1 °F /  3.4 °C 29.84in /  1010.4hPa Calm   3mph /  4.8km/h 95% 0.00in /  0mm 77 W/m2
12:44 39.4 °F /  4.1 °C 38.1 °F /  3.4 °C 29.85in /  1010.7hPa Calm   3mph /  4.8km/h 95% 0.00in /  0mm 58 W/m2
12:49 39.4 °F /  4.1 °C 38.1 °F /  3.4 °C 29.84in /  1010.4hPa Calm   3mph /  4.8km/h 95% 0.00in /  0mm 63 W/m2
12:54 39.4 °F /  4.1 °C 38.1 °F /  3.4 °C 29.84in /  1010.4hPa Calm   3mph /  4.8km/h 95% 0.00in /  0mm 86 W/m2
12:59 39.4 °F /  4.1 °C 38.1 °F /  3.4 °C 29.83in /  1010hPa SSE 0.2mph /  0.3km/h 3mph /  4.8km/h 95% 0.00in /  0mm 91 W/m2
13:04 39.5 °F /  4.2 °C 38.1 °F /  3.4 °C 29.83in /  1010hPa Calm   3mph /  4.8km/h 95% 0.00in /  0mm 74 W/m2
13:09 39.5 °F /  4.2 °C 38.2 °F /  3.4 °C 29.83in /  1010hPa Calm     95% 0.00in /  0mm 74 W/m2
13:14 39.5 °F /  4.2 °C 38.2 °F /  3.4 °C 29.82in /  1009.7hPa SSE 0.2mph /  0.3km/h 2mph /  3.2km/h 95% 0.00in /  0mm 54 W/m2
13:19 39.5 °F /  4.2 °C 38.2 °F /  3.4 °C 29.82in /  1009.7hPa SSE 0.7mph /  1.1km/h 3mph /  4.8km/h 95% 0.00in /  0mm 77 W/m2
13:24 39.5 °F /  4.2 °C 38.2 °F /  3.4 °C 29.82in /  1009.7hPa SSE 0.4mph /  0.6km/h 3mph /  4.8km/h 95% 0.00in /  0mm 79 W/m2
13:29 39.5 °F /  4.2 °C 38.1 °F /  3.4 °C 29.81in /  1009.4hPa SSE 0.5mph /  0.8km/h 4mph /  6.4km/h 95% 0.00in /  0mm 86 W/m2
13:34 39.5 °F /  4.2 °C 38.2 °F /  3.4 °C 29.81in /  1009.4hPa SSE 0.1mph /  0.2km/h 4mph /  6.4km/h 95% 0.00in /  0mm 111 W/m2
13:39 39.5 °F /  4.2 °C 38.2 °F /  3.4 °C 29.80in /  1009hPa SSE 0.1mph /  0.2km/h 3mph /  4.8km/h 95% 0.00in /  0mm 116 W/m2
13:44 39.7 °F /  4.3 °C 38.3 °F /  3.5 °C 29.81in /  1009.4hPa SSE 0.3mph /  0.5km/h 3mph /  4.8km/h 95% 0.00in /  0mm 74 W/m2
13:49 39.8 °F /  4.3 °C 38.5 °F /  3.6 °C 29.81in /  1009.4hPa Calm   3mph /  4.8km/h 95% 0.00in /  0mm 67 W/m2
13:54 39.8 °F /  4.3 °C 38.5 °F /  3.6 °C 29.80in /  1009hPa Calm   3mph /  4.8km/h 95% 0.00in /  0mm 95 W/m2
13:59 39.8 °F /  4.3 °C 38.5 °F /  3.6 °C 29.80in /  1009hPa South 0.3mph /  0.5km/h 3mph /  4.8km/h 95% 0.00in /  0mm 95 W/m2
14:04 39.9 °F /  4.4 °C 38.7 °F /  3.7 °C 29.79in /  1008.7hPa Calm   3mph /  4.8km/h 95.4% 0.00in /  0mm 63 W/m2
14:09 40 °F /  4.4 °C 38.9 °F /  3.8 °C 29.79in /  1008.7hPa Calm   1mph /  1.6km/h 96% 0.00in /  0mm 51 W/m2
14:14 40.1 °F /  4.5 °C 39 °F /  3.9 °C 29.79in /  1008.7hPa Calm   1mph /  1.6km/h 96% 0.00in /  0mm 30 W/m2
14:19 40.1 °F /  4.5 °C 39.1 °F /  3.9 °C 29.79in /  1008.7hPa Calm   1mph /  1.6km/h 96% 0.00in /  0mm 32 W/m2
14:24 40.1 °F /  4.5 °C 39.1 °F /  3.9 °C 29.79in /  1008.7hPa Calm   1mph /  1.6km/h 96% 0.00in /  0mm 35 W/m2
14:29 40.1 °F /  4.5 °C 39.1 °F /  3.9 °C 29.78in /  1008.4hPa Calm   1mph /  1.6km/h 96% 0.00in /  0mm 35 W/m2
14:34 40.1 °F /  4.5 °C 39.1 °F /  3.9 °C 29.78in /  1008.4hPa Calm   1mph /  1.6km/h 96% 0.00in /  0mm 39 W/m2
14:39 40.1 °F /  4.5 °C 39.1 °F /  3.9 °C 29.77in /  1008hPa South 0.5mph /  0.8km/h 3mph /  4.8km/h 96% 0.00in /  0mm 40 W/m2
14:44 40.2 °F /  4.6 °C 39.1 °F /  3.9 °C 29.77in /  1008hPa Calm   3mph /  4.8km/h 96% 0.00in /  0mm 49 W/m2
14:49 40.2 °F /  4.6 °C 39.2 °F /  4 °C 29.77in /  1008hPa South 0.7mph /  1.1km/h 3mph /  4.8km/h 96% 0.00in /  0mm 47 W/m2
14:54 40.3 °F /  4.6 °C 39.3 °F /  4.1 °C 29.77in /  1008hPa South 0.5mph /  0.8km/h 3mph /  4.8km/h 96% 0.00in /  0mm 49 W/m2
14:59 40.5 °F /  4.7 °C 39.4 °F /  4.1 °C 29.77in /  1008hPa South 0.3mph /  0.5km/h 3mph /  4.8km/h 96% 0.00in /  0mm 39 W/m2
15:04 40.5 °F /  4.7 °C 39.5 °F /  4.2 °C 29.76in /  1007.7hPa South 0.1mph /  0.2km/h 3mph /  4.8km/h 96% 0.00in /  0mm 33 W/m2
15:09 40.6 °F /  4.8 °C 39.6 °F /  4.2 °C 29.76in /  1007.7hPa South 0.1mph /  0.2km/h 2mph /  3.2km/h 96% 0.00in /  0mm 28 W/m2
15:14 40.7 °F /  4.8 °C 39.6 °F /  4.2 °C 29.77in /  1008hPa Calm   2mph /  3.2km/h 96% 0.00in /  0mm 18 W/m2
15:19 40.7 °F /  4.8 °C 39.7 °F /  4.3 °C 29.77in /  1008hPa Calm   2mph /  3.2km/h 96% 0.00in /  0mm 14 W/m2
15:24 40.8 °F /  4.9 °C 39.7 °F /  4.3 °C 29.78in /  1008.4hPa Calm   2mph /  3.2km/h 96% 0.00in /  0mm 11 W/m2
15:29 40.8 °F /  4.9 °C 39.8 °F /  4.3 °C 29.78in /  1008.4hPa Calm   2mph /  3.2km/h 96% 0.00in /  0mm 11 W/m2
15:34 40.7 °F /  4.8 °C 39.7 °F /  4.3 °C 29.78in /  1008.4hPa Calm   2mph /  3.2km/h 96% 0.00in /  0mm 11 W/m2
15:39 40.7 °F /  4.8 °C 39.7 °F /  4.3 °C 29.78in /  1008.4hPa Calm     96% 0.00in /  0mm 9 W/m2
15:44 40.7 °F /  4.8 °C 39.7 °F /  4.3 °C 29.78in /  1008.4hPa Calm     96% 0.00in /  0mm 7 W/m2
15:49 40.7 °F /  4.8 °C 39.7 °F /  4.3 °C 29.77in /  1008hPa Calm     96% 0.00in /  0mm 7 W/m2
15:54 40.7 °F /  4.8 °C 39.7 °F /  4.3 °C 29.77in /  1008hPa Calm     96% 0.00in /  0mm 5 W/m2
15:59 40.7 °F /  4.8 °C 39.7 °F /  4.3 °C 29.77in /  1008hPa Calm     96% 0.00in /  0mm 7 W/m2
16:09 41 °F /  5 °C 40 °F /  4.4 °C 29.77in /  1008hPa Calm     96% 0.00in /  0mm 5 W/m2
16:14 41.1 °F /  5.1 °C 40.1 °F /  4.5 °C 29.77in /  1008hPa Calm     96% 0.00in /  0mm 0 W/m2
16:19 41.2 °F /  5.1 °C 40.2 °F /  4.6 °C 29.76in /  1007.7hPa South 0.1mph /  0.2km/h 2mph /  3.2km/h 96% 0.00in /  0mm 0 W/m2
16:24 41.3 °F /  5.2 °C 40.3 °F /  4.6 °C 29.76in /  1007.7hPa Calm   2mph /  3.2km/h 96% 0.00in /  0mm 0 W/m2
16:29 41.4 °F /  5.2 °C 40.3 °F /  4.6 °C 29.76in /  1007.7hPa South 0.1mph /  0.2km/h 2mph /  3.2km/h 96% 0.00in /  0mm 0 W/m2
16:34 41.5 °F /  5.3 °C 40.4 °F /  4.7 °C 29.76in /  1007.7hPa Calm   2mph /  3.2km/h 96% 0.00in /  0mm 0 W/m2
16:39 41.6 °F /  5.3 °C 40.5 °F /  4.7 °C 29.76in /  1007.7hPa South 0.1mph /  0.2km/h 3mph /  4.8km/h 96% 0.00in /  0mm 0 W/m2
16:44 41.6 °F /  5.3 °C 40.6 °F /  4.8 °C 29.76in /  1007.7hPa Calm   3mph /  4.8km/h 96% 0.00in /  0mm 0 W/m2
16:49 41.7 °F /  5.4 °C 40.7 °F /  4.8 °C 29.75in /  1007.3hPa Calm   3mph /  4.8km/h 96% 0.00in /  0mm 0 W/m2
16:54 41.8 °F /  5.4 °C 40.7 °F /  4.8 °C 29.75in /  1007.3hPa South 0.6mph /  1km/h 3mph /  4.8km/h 96% 0.00in /  0mm 0 W/m2
16:59 41.7 °F /  5.4 °C 40.7 °F /  4.8 °C 29.75in /  1007.3hPa Calm   3mph /  4.8km/h 96% 0.00in /  0mm 0 W/m2
17:04 41.6 °F /  5.3 °C 40.6 °F /  4.8 °C 29.75in /  1007.3hPa Calm   3mph /  4.8km/h 96% 0.00in /  0mm 0 W/m2
17:09 41.5 °F /  5.3 °C 40.5 °F /  4.7 °C 29.75in /  1007.3hPa Calm   1mph /  1.6km/h 96% 0.00in /  0mm 0 W/m2
17:14 41.5 °F /  5.3 °C 40.5 °F /  4.7 °C 29.75in /  1007.3hPa Calm   1mph /  1.6km/h 96% 0.00in /  0mm 0 W/m2
17:19 41.5 °F /  5.3 °C 40.4 °F /  4.7 °C 29.74in /  1007hPa Calm   1mph /  1.6km/h 96% 0.00in /  0mm 0 W/m2
17:24 41.4 °F /  5.2 °C 40.3 °F /  4.6 °C 29.74in /  1007hPa Calm   1mph /  1.6km/h 96% 0.00in /  0mm 0 W/m2
17:29 41.3 °F /  5.2 °C 40.3 °F /  4.6 °C 29.74in /  1007hPa Calm   1mph /  1.6km/h 96% 0.00in /  0mm 0 W/m2
17:34 41.3 °F /  5.2 °C 40.3 °F /  4.6 °C 29.74in /  1007hPa Calm   1mph /  1.6km/h 96% 0.00in /  0mm 0 W/m2
17:39 41.3 °F /  5.2 °C 40.2 °F /  4.6 °C 29.74in /  1007hPa Calm     96% 0.00in /  0mm 0 W/m2
17:44 41.2 °F /  5.1 °C 40.2 °F /  4.6 °C 29.74in /  1007hPa Calm     96% 0.00in /  0mm 0 W/m2
17:49 41.1 °F /  5.1 °C 40.1 °F /  4.5 °C 29.73in /  1006.7hPa Calm     96% 0.00in /  0mm 0 W/m2
17:54 41.1 °F /  5.1 °C 40.1 °F /  4.5 °C 29.73in /  1006.7hPa Calm     96% 0.00in /  0mm 0 W/m2
17:59 41.1 °F /  5.1 °C 40 °F /  4.4 °C 29.73in /  1006.7hPa Calm     96% 0.00in /  0mm 0 W/m2
18:04 41 °F /  5 °C 40 °F /  4.4 °C 29.73in /  1006.7hPa Calm     96% 0.00in /  0mm 0 W/m2
18:09 41 °F /  5 °C 40 °F /  4.4 °C 29.73in /  1006.7hPa Calm     96% 0.00in /  0mm 0 W/m2
18:14 41 °F /  5 °C 40 °F /  4.4 °C 29.73in /  1006.7hPa Calm     96% 0.00in /  0mm 0 W/m2
18:19 41 °F /  5 °C 40 °F /  4.4 °C 29.73in /  1006.7hPa Calm     96% 0.00in /  0mm 0 W/m2
18:24 41.1 °F /  5.1 °C 40 °F /  4.4 °C 29.72in /  1006.3hPa Calm   1mph /  1.6km/h 96% 0.00in /  0mm 0 W/m2
18:29 41.1 °F /  5.1 °C 40 °F /  4.4 °C 29.72in /  1006.3hPa Calm   2mph /  3.2km/h 96% 0.00in /  0mm 0 W/m2
18:34 41.1 °F /  5.1 °C 40.1 °F /  4.5 °C 29.71in /  1006hPa Calm   2mph /  3.2km/h 96% 0.00in /  0mm 0 W/m2
18:39 41.1 °F /  5.1 °C 40.1 °F /  4.5 °C 29.71in /  1006hPa Calm     96% 0.00in /  0mm 0 W/m2
18:44 41.2 °F /  5.1 °C 40.1 °F /  4.5 °C 29.72in /  1006.3hPa Calm     96% 0.00in /  0mm 0 W/m2
18:49 41.3 °F /  5.2 °C 40.2 °F /  4.6 °C 29.72in /  1006.3hPa Calm     96% 0.00in /  0mm 0 W/m2
18:54 41.3 °F /  5.2 °C 40.3 °F /  4.6 °C 29.72in /  1006.3hPa Calm     96% 0.00in /  0mm 0 W/m2
18:59 41.4 °F /  5.2 °C 40.3 °F /  4.6 °C 29.71in /  1006hPa Calm     96% 0.00in /  0mm 0 W/m2
19:04 41.4 °F /  5.2 °C 40.4 °F /  4.7 °C 29.72in /  1006.3hPa Calm     96% 0.00in /  0mm 0 W/m2
19:09 41.5 °F /  5.3 °C 40.4 °F /  4.7 °C 29.72in /  1006.3hPa Calm     96% 0.00in /  0mm 0 W/m2
19:14 41.4 °F /  5.2 °C 40.4 °F /  4.7 °C 29.72in /  1006.3hPa Calm     96% 0.00in /  0mm 0 W/m2
19:19 41.4 °F /  5.2 °C 40.3 °F /  4.6 °C 29.72in /  1006.3hPa Calm     96% 0.00in /  0mm 0 W/m2
19:24 41.4 °F /  5.2 °C 40.3 °F /  4.6 °C 29.72in /  1006.3hPa Calm     96% 0.00in /  0mm 0 W/m2
19:29 41.3 °F /  5.2 °C 40.3 °F /  4.6 °C 29.72in /  1006.3hPa Calm     96% 0.00in /  0mm 0 W/m2
19:34 41.3 °F /  5.2 °C 40.2 °F /  4.6 °C 29.72in /  1006.3hPa Calm     96% 0.00in /  0mm 0 W/m2
19:39 41.2 °F /  5.1 °C 40.2 °F /  4.6 °C 29.72in /  1006.3hPa Calm     96% 0.00in /  0mm 0 W/m2
19:44 41.2 °F /  5.1 °C 40.1 °F /  4.5 °C 29.72in /  1006.3hPa Calm     96% 0.00in /  0mm 0 W/m2
19:49 41.2 °F /  5.1 °C 40.2 °F /  4.6 °C 29.72in /  1006.3hPa South 0.2mph /  0.3km/h 3mph /  4.8km/h 96% 0.00in /  0mm 0 W/m2
19:54 41.2 °F /  5.1 °C 40.2 °F /  4.6 °C 29.72in /  1006.3hPa Calm   3mph /  4.8km/h 96% 0.00in /  0mm 0 W/m2
19:59 41.2 °F /  5.1 °C 40.2 °F /  4.6 °C 29.72in /  1006.3hPa Calm   3mph /  4.8km/h 96% 0.00in /  0mm 0 W/m2
20:00 41.2 °F /  5.1 °C 40.2 °F /  4.6 °C 29.71in /  1006hPa Calm   3mph /  4.8km/h 96% 0.00in /  0mm 0 W/m2
20:09 41.1 °F /  5.1 °C 40 °F /  4.4 °C 29.71in /  1006hPa Calm     96% 0.00in /  0mm 0 W/m2
20:14 41 °F /  5 °C 39.9 °F /  4.4 °C 29.71in /  1006hPa Calm     96% 0.00in /  0mm 0 W/m2
20:19 40.9 °F /  4.9 °C 39.8 °F /  4.3 °C 29.71in /  1006hPa Calm     96% 0.00in /  0mm 0 W/m2
20:24 40.8 °F /  4.9 °C 39.7 °F /  4.3 °C 29.71in /  1006hPa Calm     96% 0.00in /  0mm 0 W/m2
20:29 40.6 °F /  4.8 °C 39.5 °F /  4.2 °C 29.70in /  1005.6hPa Calm     96% 0.00in /  0mm 0 W/m2
20:34 40.3 °F /  4.6 °C 39.2 °F /  4 °C 29.70in /  1005.6hPa Calm     96% 0.00in /  0mm 0 W/m2
20:39 40 °F /  4.4 °C 38.9 °F /  3.8 °C 29.70in /  1005.6hPa Calm     96% 0.00in /  0mm 0 W/m2
20:44 39.7 °F /  4.3 °C 38.6 °F /  3.7 °C 29.70in /  1005.6hPa South 0.1mph /  0.2km/h 1mph /  1.6km/h 96% 0.00in /  0mm 0 W/m2
20:49 39.3 °F /  4.1 °C 38.3 °F /  3.5 °C 29.70in /  1005.6hPa Calm   1mph /  1.6km/h 96% 0.00in /  0mm 0 W/m2
20:54 39 °F /  3.9 °C 38 °F /  3.3 °C 29.70in /  1005.6hPa Calm   1mph /  1.6km/h 96% 0.00in /  0mm 0 W/m2
20:59 38.8 °F /  3.8 °C 37.6 °F /  3.1 °C 29.70in /  1005.6hPa Calm   1mph /  1.6km/h 95.5% 0.00in /  0mm 0 W/m2
21:04 38.6 °F /  3.7 °C 37.5 °F /  3.1 °C 29.69in /  1005.3hPa Calm   1mph /  1.6km/h 95.9% 0.00in /  0mm 0 W/m2
21:09 38.3 °F /  3.5 °C 37.3 °F /  2.9 °C 29.69in /  1005.3hPa Calm   1mph /  1.6km/h 95.8% 0.00in /  0mm 0 W/m2
21:14 38.2 °F /  3.4 °C 37.1 °F /  2.8 °C 29.69in /  1005.3hPa Calm   1mph /  1.6km/h 95.9% 0.00in /  0mm 0 W/m2
21:19 38.2 °F /  3.4 °C 37.1 °F /  2.8 °C 29.69in /  1005.3hPa Calm   1mph /  1.6km/h 96% 0.00in /  0mm 0 W/m2
21:24 38 °F /  3.3 °C 37 °F /  2.8 °C 29.69in /  1005.3hPa Calm   1mph /  1.6km/h 96% 0.00in /  0mm 0 W/m2
21:29 37.9 °F /  3.3 °C 36.9 °F /  2.7 °C 29.69in /  1005.3hPa Calm   1mph /  1.6km/h 96% 0.00in /  0mm 0 W/m2
21:33 37.7 °F /  3.2 °C 36.7 °F /  2.6 °C 29.69in /  1005.3hPa Calm   1mph /  1.6km/h 96% 0.00in /  0mm 0 W/m2
21:39 37.4 °F /  3 °C 36.3 °F /  2.4 °C 29.68in /  1005hPa Calm     96% 0.00in /  0mm 0 W/m2
21:44 37.2 °F /  2.9 °C 36.1 °F /  2.3 °C 29.68in /  1005hPa Calm     96% 0.00in /  0mm 0 W/m2
21:49 37 °F /  2.8 °C 36 °F /  2.2 °C 29.68in /  1005hPa Calm     96% 0.00in /  0mm 0 W/m2
21:54 36.8 °F /  2.7 °C 35.8 °F /  2.1 °C 29.68in /  1005hPa Calm     96% 0.00in /  0mm 0 W/m2
21:59 36.8 °F /  2.7 °C 35.8 °F /  2.1 °C 29.68in /  1005hPa Calm     96% 0.00in /  0mm 0 W/m2
22:04 36.8 °F /  2.7 °C 35.7 °F /  2.1 °C 29.67in /  1004.6hPa Calm     96% 0.00in /  0mm 0 W/m2
22:09 36.6 °F /  2.6 °C 35.6 °F /  2 °C 29.67in /  1004.6hPa Calm     96% 0.00in /  0mm 0 W/m2
22:14 36.5 °F /  2.5 °C 35.5 °F /  1.9 °C 29.67in /  1004.6hPa Calm     96% 0.00in /  0mm 0 W/m2
22:19 36.4 °F /  2.4 °C 35.4 °F /  1.9 °C 29.67in /  1004.6hPa Calm   2mph /  3.2km/h 96% 0.00in /  0mm 0 W/m2
22:24 36.2 °F /  2.3 °C 35.2 °F /  1.8 °C 29.66in /  1004.3hPa South 0.1mph /  0.2km/h 2mph /  3.2km/h 96% 0.00in /  0mm 0 W/m2
22:29 36.3 °F /  2.4 °C 35.2 °F /  1.8 °C 29.66in /  1004.3hPa Calm   2mph /  3.2km/h 96% 0.00in /  0mm 0 W/m2
22:34 36.3 °F /  2.4 °C 35.3 °F /  1.8 °C 29.66in /  1004.3hPa Calm   2mph /  3.2km/h 96% 0.00in /  0mm 0 W/m2
22:39 36.4 °F /  2.4 °C 35.4 °F /  1.9 °C 29.66in /  1004.3hPa Calm     96% 0.00in /  0mm 0 W/m2
22:44 36.5 °F /  2.5 °C 35.4 °F /  1.9 °C 29.66in /  1004.3hPa Calm     96% 0.00in /  0mm 0 W/m2
22:49 36.5 °F /  2.5 °C 35.5 °F /  1.9 °C 29.66in /  1004.3hPa Calm     96% 0.00in /  0mm 0 W/m2
23:09 36.9 °F /  2.7 °C 35.9 °F /  2.2 °C 29.65in /  1003.9hPa Calm     96% 0.00in /  0mm 0 W/m2
23:14 36.9 °F /  2.7 °C 35.8 °F /  2.1 °C 29.65in /  1003.9hPa Calm     96% 0.00in /  0mm 0 W/m2
23:19 36.9 °F /  2.7 °C 35.8 °F /  2.1 °C 29.64in /  1003.6hPa Calm     96% 0.00in /  0mm 0 W/m2
23:24 36.9 °F /  2.7 °C 35.9 °F /  2.2 °C 29.64in /  1003.6hPa Calm     96% 0.00in /  0mm 0 W/m2
23:29 36.9 °F /  2.7 °C 35.9 °F /  2.2 °C 29.64in /  1003.6hPa Calm     96% 0.00in /  0mm 0 W/m2
23:34 37.2 °F /  2.9 °C 36.2 °F /  2.3 °C 29.64in /  1003.6hPa Calm     96% 0.00in /  0mm 0 W/m2
23:39 37.5 °F /  3.1 °C 36.4 °F /  2.4 °C 29.64in /  1003.6hPa Calm     96% 0.00in /  0mm 0 W/m2
23:44 37.5 °F /  3.1 °C 36.5 °F /  2.5 °C 29.64in /  1003.6hPa Calm     96% 0.00in /  0mm 0 W/m2
23:49 37.5 °F /  3.1 °C 36.5 °F /  2.5 °C 29.63in /  1003.3hPa Calm     96% 0.00in /  0mm 0 W/m2
23:54 37.5 °F /  3.1 °C 36.5 °F /  2.5 °C 29.63in /  1003.3hPa Calm     96% 0.00in /  0mm 0 W/m2
23:59 37.5 °F /  3.1 °C 36.5 °F /  2.5 °C 29.63in /  1003.3hPa Calm     96% 0.00in /  0mm 0 W/m2
Hartford County Weather
Compliments of Weather Underground - 2 mb